<?xml version="1.0" encoding="UTF-8" standalone="no" ?>
<gpx xmlns="http://www.topografix.com/GPX/1/1" xmlns:xsi="http://www.w3.org/2001/XMLSchema-instance" xsi:schemaLocation="http://www.topografix.com/GPX/1/1 http://www.topografix.com/GPX/1/1/gpx.xsd" version="1.1" creator="VisuGPX - https://www.visugpx.com">
  <metadata>
    <name>parcours pedestre 3km</name>
    <desc><![CDATA[parcours pedestre 3km]]></desc>
  </metadata>
  <trk>
    <name><![CDATA[parcours pedestre 3km_1]]></name>
    <trkseg>
      <trkpt lat="50.50315" lon="2.86887">
        <ele>12.63300037384</ele>
        <time>2011-03-16T14:11:48Z</time>
      </trkpt>
      <trkpt lat="50.50325" lon="2.8688">
        <ele>12.3109998703</ele>
        <time>2011-03-16T14:11:56Z</time>
      </trkpt>
      <trkpt lat="50.50348" lon="2.86873">
        <ele>12.91100025177</ele>
        <time>2011-03-16T14:12:02Z</time>
      </trkpt>
      <trkpt lat="50.50356" lon="2.86873">
        <ele>13.220999717712</ele>
        <time>2011-03-16T14:12:04Z</time>
      </trkpt>
      <trkpt lat="50.50382" lon="2.86877">
        <ele>14.147000312805</ele>
        <time>2011-03-16T14:12:10Z</time>
      </trkpt>
      <trkpt lat="50.50409" lon="2.86877">
        <ele>14.914999961853</ele>
        <time>2011-03-16T14:12:16Z</time>
      </trkpt>
      <trkpt lat="50.5042" lon="2.86887">
        <ele>14.930000305176</ele>
        <time>2011-03-16T14:12:19Z</time>
      </trkpt>
      <trkpt lat="50.50421" lon="2.86893">
        <ele>15.093000411987</ele>
        <time>2011-03-16T14:12:20Z</time>
      </trkpt>
      <trkpt lat="50.50424" lon="2.8694">
        <ele>15.496000289917</ele>
        <time>2011-03-16T14:12:26Z</time>
      </trkpt>
      <trkpt lat="50.50428" lon="2.8698">
        <ele>14.83899974823</ele>
        <time>2011-03-16T14:12:31Z</time>
      </trkpt>
      <trkpt lat="50.50429" lon="2.86988">
        <ele>14.821000099182</ele>
        <time>2011-03-16T14:12:32Z</time>
      </trkpt>
      <trkpt lat="50.50432" lon="2.87025">
        <ele>14.565443992615</ele>
        <time>2011-03-16T14:12:37Z</time>
      </trkpt>
      <trkpt lat="50.5046" lon="2.8701">
        <ele>14.339365005493</ele>
        <time>2011-03-16T14:12:41Z</time>
      </trkpt>
      <trkpt lat="50.50468" lon="2.87014">
        <ele>14.322999954224</ele>
        <time>2011-03-16T14:12:42Z</time>
      </trkpt>
      <trkpt lat="50.50474" lon="2.87028">
        <ele>14.347748756409</ele>
        <time>2011-03-16T14:12:42Z</time>
      </trkpt>
      <trkpt lat="50.50477" lon="2.87089">
        <ele>14.38300037384</ele>
        <time>2011-03-16T14:12:44Z</time>
      </trkpt>
      <trkpt lat="50.50476" lon="2.87166">
        <ele>14.807000160217</ele>
        <time>2011-03-16T14:12:53Z</time>
      </trkpt>
      <trkpt lat="50.50477" lon="2.87212">
        <ele>14.881999969482</ele>
        <time>2011-03-16T14:12:59Z</time>
      </trkpt>
      <trkpt lat="50.50475" lon="2.87234">
        <ele>14.442999839783</ele>
        <time>2011-03-16T14:13:03Z</time>
      </trkpt>
      <trkpt lat="50.50471" lon="2.87249">
        <ele>12.779000282288</ele>
        <time>2011-03-16T14:13:09Z</time>
      </trkpt>
      <trkpt lat="50.50471" lon="2.8725">
        <ele>12.788000106812</ele>
        <time>2011-03-16T14:13:10Z</time>
      </trkpt>
      <trkpt lat="50.5047" lon="2.87261">
        <ele>13.159000396728</ele>
        <time>2011-03-16T14:14:10Z</time>
      </trkpt>
      <trkpt lat="50.5047" lon="2.87287">
        <ele>13.255000114441</ele>
        <time>2011-03-16T14:14:15Z</time>
      </trkpt>
      <trkpt lat="50.50471" lon="2.87313">
        <ele>13.385999679565</ele>
        <time>2011-03-16T14:14:19Z</time>
      </trkpt>
      <trkpt lat="50.50474" lon="2.87351">
        <ele>13.493000030518</ele>
        <time>2011-03-16T14:14:25Z</time>
      </trkpt>
      <trkpt lat="50.5049" lon="2.87357">
        <ele>13.532999992371</ele>
        <time>2011-03-16T14:14:30Z</time>
      </trkpt>
      <trkpt lat="50.50501" lon="2.87339">
        <ele>13.107000350952</ele>
        <time>2011-03-16T14:14:34Z</time>
      </trkpt>
      <trkpt lat="50.50505" lon="2.87341">
        <ele>12.854999542236</ele>
        <time>2011-03-16T14:14:36Z</time>
      </trkpt>
      <trkpt lat="50.50502" lon="2.8735">
        <ele>12.40299987793</ele>
        <time>2011-03-16T14:14:38Z</time>
      </trkpt>
      <trkpt lat="50.50496" lon="2.87377">
        <ele>11.690999984741</ele>
        <time>2011-03-16T14:14:43Z</time>
      </trkpt>
      <trkpt lat="50.505" lon="2.87386">
        <ele>11.446999549866</ele>
        <time>2011-03-16T14:14:47Z</time>
      </trkpt>
      <trkpt lat="50.50503" lon="2.87392">
        <ele>11.583000183106</ele>
        <time>2011-03-16T14:14:51Z</time>
      </trkpt>
      <trkpt lat="50.50504" lon="2.87391">
        <ele>11.460000038147</ele>
        <time>2011-03-16T14:17:12Z</time>
      </trkpt>
      <trkpt lat="50.50505" lon="2.87392">
        <ele>11.475999832153</ele>
        <time>2011-03-16T14:17:15Z</time>
      </trkpt>
      <trkpt lat="50.50515" lon="2.87382">
        <ele>10.612999916077</ele>
        <time>2011-03-16T14:17:23Z</time>
      </trkpt>
      <trkpt lat="50.50517" lon="2.87383">
        <ele>10.475999832153</ele>
        <time>2011-03-16T14:17:24Z</time>
      </trkpt>
      <trkpt lat="50.50526" lon="2.87394">
        <ele>10.343000411987</ele>
        <time>2011-03-16T14:17:28Z</time>
      </trkpt>
      <trkpt lat="50.50537" lon="2.87406">
        <ele>13.942000389099</ele>
        <time>2011-03-16T14:17:34Z</time>
      </trkpt>
      <trkpt lat="50.50568" lon="2.87405">
        <ele>15.02799987793</ele>
        <time>2011-03-16T14:17:41Z</time>
      </trkpt>
      <trkpt lat="50.50582" lon="2.87403">
        <ele>14.685000419617</ele>
        <time>2011-03-16T14:17:44Z</time>
      </trkpt>
      <trkpt lat="50.50603" lon="2.87402">
        <ele>14.593999862671</ele>
        <time>2011-03-16T14:17:49Z</time>
      </trkpt>
      <trkpt lat="50.50616" lon="2.87397">
        <ele>14.8109998703</ele>
        <time>2011-03-16T14:17:52Z</time>
      </trkpt>
      <trkpt lat="50.50638" lon="2.87382">
        <ele>15.048999786377</ele>
        <time>2011-03-16T14:17:57Z</time>
      </trkpt>
      <trkpt lat="50.50651" lon="2.8737">
        <ele>15.171999931335</ele>
        <time>2011-03-16T14:18:00Z</time>
      </trkpt>
      <trkpt lat="50.5066" lon="2.87362">
        <ele>15.298000335693</ele>
        <time>2011-03-16T14:18:02Z</time>
      </trkpt>
      <trkpt lat="50.50678" lon="2.87335">
        <ele>14.5609998703</ele>
        <time>2011-03-16T14:18:07Z</time>
      </trkpt>
      <trkpt lat="50.5069" lon="2.87317">
        <ele>13.918999671936</ele>
        <time>2011-03-16T14:18:10Z</time>
      </trkpt>
      <trkpt lat="50.50697" lon="2.87304">
        <ele>13.866000175476</ele>
        <time>2011-03-16T14:18:12Z</time>
      </trkpt>
      <trkpt lat="50.50712" lon="2.87294">
        <ele>13.977000236511</ele>
        <time>2011-03-16T14:18:16Z</time>
      </trkpt>
      <trkpt lat="50.50721" lon="2.8727">
        <ele>13.484000205994</ele>
        <time>2011-03-16T14:18:20Z</time>
      </trkpt>
      <trkpt lat="50.50732" lon="2.87249">
        <ele>12.848999977112</ele>
        <time>2011-03-16T14:18:24Z</time>
      </trkpt>
      <trkpt lat="50.50747" lon="2.87235">
        <ele>12.512999534607</ele>
        <time>2011-03-16T14:18:28Z</time>
      </trkpt>
      <trkpt lat="50.50766" lon="2.87217">
        <ele>11.805000305176</ele>
        <time>2011-03-16T14:18:34Z</time>
      </trkpt>
      <trkpt lat="50.50777" lon="2.87204">
        <ele>11.173000335693</ele>
        <time>2011-03-16T14:18:39Z</time>
      </trkpt>
      <trkpt lat="50.50788" lon="2.87195">
        <ele>9.8090000152588</ele>
        <time>2011-03-16T14:18:43Z</time>
      </trkpt>
      <trkpt lat="50.50789" lon="2.87181">
        <ele>9.3540000915527</ele>
        <time>2011-03-16T14:18:47Z</time>
      </trkpt>
      <trkpt lat="50.50785" lon="2.87166">
        <ele>11.293999671936</ele>
        <time>2011-03-16T14:18:51Z</time>
      </trkpt>
      <trkpt lat="50.50791" lon="2.87158">
        <ele>12.381999969482</ele>
        <time>2011-03-16T14:18:57Z</time>
      </trkpt>
      <trkpt lat="50.50794" lon="2.87156">
        <ele>12.312999725342</ele>
        <time>2011-03-16T14:19:02Z</time>
      </trkpt>
      <trkpt lat="50.50799" lon="2.8715">
        <ele>12.171999931335</ele>
        <time>2011-03-16T14:19:39Z</time>
      </trkpt>
      <trkpt lat="50.50816" lon="2.87145">
        <ele>12.581000328064</ele>
        <time>2011-03-16T14:19:44Z</time>
      </trkpt>
      <trkpt lat="50.50822" lon="2.87141">
        <ele>12.710000038147</ele>
        <time>2011-03-16T14:19:46Z</time>
      </trkpt>
      <trkpt lat="50.50835" lon="2.87137">
        <ele>12.508999824524</ele>
        <time>2011-03-16T14:19:49Z</time>
      </trkpt>
      <trkpt lat="50.50874" lon="2.87117">
        <ele>12.479999542236</ele>
        <time>2011-03-16T14:19:57Z</time>
      </trkpt>
      <trkpt lat="50.50906" lon="2.87103">
        <ele>12.3109998703</ele>
        <time>2011-03-16T14:20:03Z</time>
      </trkpt>
      <trkpt lat="50.50933" lon="2.8709">
        <ele>12.027000427246</ele>
        <time>2011-03-16T14:20:08Z</time>
      </trkpt>
      <trkpt lat="50.50968" lon="2.87073">
        <ele>11.699999809265</ele>
        <time>2011-03-16T14:20:15Z</time>
      </trkpt>
      <trkpt lat="50.50995" lon="2.8706">
        <ele>11.340000152588</ele>
        <time>2011-03-16T14:20:21Z</time>
      </trkpt>
      <trkpt lat="50.51001" lon="2.87044">
        <ele>11.211999893188</ele>
        <time>2011-03-16T14:20:24Z</time>
      </trkpt>
      <trkpt lat="50.50992" lon="2.86994">
        <ele>10.001999855042</ele>
        <time>2011-03-16T14:20:31Z</time>
      </trkpt>
      <trkpt lat="50.50974" lon="2.8695">
        <ele>9.8940000534058</ele>
        <time>2011-03-16T14:20:38Z</time>
      </trkpt>
      <trkpt lat="50.50954" lon="2.86911">
        <ele>9.8290004730225</ele>
        <time>2011-03-16T14:20:45Z</time>
      </trkpt>
      <trkpt lat="50.50948" lon="2.86902">
        <ele>9.8690004348755</ele>
        <time>2011-03-16T14:20:47Z</time>
      </trkpt>
      <trkpt lat="50.50937" lon="2.86871">
        <ele>9.9329996109009</ele>
        <time>2011-03-16T14:20:52Z</time>
      </trkpt>
      <trkpt lat="50.50935" lon="2.86858">
        <ele>9.8500003814697</ele>
        <time>2011-03-16T14:20:54Z</time>
      </trkpt>
      <trkpt lat="50.50932" lon="2.86838">
        <ele>9.8299999237061</ele>
        <time>2011-03-16T14:20:57Z</time>
      </trkpt>
      <trkpt lat="50.50914" lon="2.86795">
        <ele>10.149000167847</ele>
        <time>2011-03-16T14:21:04Z</time>
      </trkpt>
      <trkpt lat="50.509" lon="2.86764">
        <ele>10.340999603272</ele>
        <time>2011-03-16T14:21:09Z</time>
      </trkpt>
      <trkpt lat="50.50894" lon="2.86735">
        <ele>10.673000335693</ele>
        <time>2011-03-16T14:21:13Z</time>
      </trkpt>
      <trkpt lat="50.50902" lon="2.867">
        <ele>10.371000289917</ele>
        <time>2011-03-16T14:21:18Z</time>
      </trkpt>
      <trkpt lat="50.50909" lon="2.8668">
        <ele>10.373999595642</ele>
        <time>2011-03-16T14:21:21Z</time>
      </trkpt>
      <trkpt lat="50.50916" lon="2.86651">
        <ele>10.1859998703</ele>
        <time>2011-03-16T14:21:25Z</time>
      </trkpt>
      <trkpt lat="50.5092" lon="2.86611">
        <ele>10.63300037384</ele>
        <time>2011-03-16T14:21:30Z</time>
      </trkpt>
      <trkpt lat="50.50921" lon="2.86587">
        <ele>10.630999565124</ele>
        <time>2011-03-16T14:21:33Z</time>
      </trkpt>
      <trkpt lat="50.50914" lon="2.86558">
        <ele>10.196000099182</ele>
        <time>2011-03-16T14:21:37Z</time>
      </trkpt>
      <trkpt lat="50.5089" lon="2.86509">
        <ele>10.260000228882</ele>
        <time>2011-03-16T14:21:44Z</time>
      </trkpt>
      <trkpt lat="50.50864" lon="2.86477">
        <ele>10.156999588013</ele>
        <time>2011-03-16T14:21:50Z</time>
      </trkpt>
      <trkpt lat="50.50861" lon="2.86472">
        <ele>10.171999931335</ele>
        <time>2011-03-16T14:21:52Z</time>
      </trkpt>
      <trkpt lat="50.50859" lon="2.86471">
        <ele>9.7829999923706</ele>
        <time>2011-03-16T14:21:55Z</time>
      </trkpt>
      <trkpt lat="50.50855" lon="2.86461">
        <ele>10.836999893188</ele>
        <time>2011-03-16T14:23:29Z</time>
      </trkpt>
      <trkpt lat="50.50846" lon="2.86467">
        <ele>10.574999809265</ele>
        <time>2011-03-16T14:23:34Z</time>
      </trkpt>
      <trkpt lat="50.50837" lon="2.8646">
        <ele>10.751999855042</ele>
        <time>2011-03-16T14:23:38Z</time>
      </trkpt>
      <trkpt lat="50.50836" lon="2.86457">
        <ele>10.876000404358</ele>
        <time>2011-03-16T14:23:39Z</time>
      </trkpt>
      <trkpt lat="50.50821" lon="2.86421">
        <ele>11.494000434876</ele>
        <time>2011-03-16T14:23:46Z</time>
      </trkpt>
      <trkpt lat="50.50811" lon="2.86392">
        <ele>11.609999656677</ele>
        <time>2011-03-16T14:23:50Z</time>
      </trkpt>
      <trkpt lat="50.50799" lon="2.86361">
        <ele>10.953000068665</ele>
        <time>2011-03-16T14:23:54Z</time>
      </trkpt>
      <trkpt lat="50.50792" lon="2.86337">
        <ele>10.760999679565</ele>
        <time>2011-03-16T14:23:57Z</time>
      </trkpt>
      <trkpt lat="50.50784" lon="2.86279">
        <ele>10.642999649048</ele>
        <time>2011-03-16T14:24:04Z</time>
      </trkpt>
      <trkpt lat="50.50776" lon="2.86233">
        <ele>11.324000358582</ele>
        <time>2011-03-16T14:24:10Z</time>
      </trkpt>
      <trkpt lat="50.50767" lon="2.86181">
        <ele>11.885000228882</ele>
        <time>2011-03-16T14:24:17Z</time>
      </trkpt>
      <trkpt lat="50.50759" lon="2.86154">
        <ele>12.296999931335</ele>
        <time>2011-03-16T14:24:21Z</time>
      </trkpt>
      <trkpt lat="50.50755" lon="2.86158">
        <ele>13.748999595642</ele>
        <time>2011-03-16T14:24:25Z</time>
      </trkpt>
      <trkpt lat="50.50755" lon="2.86169">
        <ele>14.314999580383</ele>
        <time>2011-03-16T14:24:28Z</time>
      </trkpt>
      <trkpt lat="50.50747" lon="2.86179">
        <ele>15.74199962616</ele>
        <time>2011-03-16T14:24:32Z</time>
      </trkpt>
      <trkpt lat="50.50734" lon="2.86178">
        <ele>18.909000396729</ele>
        <time>2011-03-16T14:24:37Z</time>
      </trkpt>
      <trkpt lat="50.50731" lon="2.86179">
        <ele>19.145999908447</ele>
        <time>2011-03-16T14:24:38Z</time>
      </trkpt>
      <trkpt lat="50.50719" lon="2.8618">
        <ele>20.879999160767</ele>
        <time>2011-03-16T14:24:42Z</time>
      </trkpt>
      <trkpt lat="50.5071" lon="2.86185">
        <ele>22.034999847412</ele>
        <time>2011-03-16T14:24:45Z</time>
      </trkpt>
      <trkpt lat="50.50702" lon="2.86193">
        <ele>23.278999328613</ele>
        <time>2011-03-16T14:24:49Z</time>
      </trkpt>
      <trkpt lat="50.50702" lon="2.86194">
        <ele>23.843000411987</ele>
        <time>2011-03-16T14:24:51Z</time>
      </trkpt>
      <trkpt lat="50.50706" lon="2.86217">
        <ele>25.35000038147</ele>
        <time>2011-03-16T14:25:39Z</time>
      </trkpt>
      <trkpt lat="50.50715" lon="2.86251">
        <ele>26.632999420166</ele>
        <time>2011-03-16T14:25:46Z</time>
      </trkpt>
      <trkpt lat="50.50723" lon="2.86292">
        <ele>26.813999176025</ele>
        <time>2011-03-16T14:25:53Z</time>
      </trkpt>
      <trkpt lat="50.50724" lon="2.86298">
        <ele>26.891000747681</ele>
        <time>2011-03-16T14:25:54Z</time>
      </trkpt>
      <trkpt lat="50.50728" lon="2.86334">
        <ele>26.906000137329</ele>
        <time>2011-03-16T14:26:00Z</time>
      </trkpt>
      <trkpt lat="50.50729" lon="2.86362">
        <ele>26.697999954224</ele>
        <time>2011-03-16T14:26:05Z</time>
      </trkpt>
      <trkpt lat="50.50733" lon="2.86397">
        <ele>26.430000305176</ele>
        <time>2011-03-16T14:26:11Z</time>
      </trkpt>
      <trkpt lat="50.50738" lon="2.86426">
        <ele>26.347999572754</ele>
        <time>2011-03-16T14:26:16Z</time>
      </trkpt>
      <trkpt lat="50.50742" lon="2.86436">
        <ele>26.503999710083</ele>
        <time>2011-03-16T14:26:18Z</time>
      </trkpt>
      <trkpt lat="50.50744" lon="2.86466">
        <ele>26.687999725342</ele>
        <time>2011-03-16T14:26:23Z</time>
      </trkpt>
      <trkpt lat="50.50743" lon="2.86489">
        <ele>26.603000640869</ele>
        <time>2011-03-16T14:26:27Z</time>
      </trkpt>
      <trkpt lat="50.50739" lon="2.86516">
        <ele>26.069999694824</ele>
        <time>2011-03-16T14:26:31Z</time>
      </trkpt>
      <trkpt lat="50.50731" lon="2.86534">
        <ele>25.339000701904</ele>
        <time>2011-03-16T14:26:34Z</time>
      </trkpt>
      <trkpt lat="50.50719" lon="2.8653">
        <ele>24.429000854492</ele>
        <time>2011-03-16T14:26:37Z</time>
      </trkpt>
      <trkpt lat="50.50711" lon="2.86514">
        <ele>23.306999206543</ele>
        <time>2011-03-16T14:26:40Z</time>
      </trkpt>
      <trkpt lat="50.50691" lon="2.86502">
        <ele>20.586000442505</ele>
        <time>2011-03-16T14:26:45Z</time>
      </trkpt>
      <trkpt lat="50.50688" lon="2.86508">
        <ele>19.856000900269</ele>
        <time>2011-03-16T14:26:46Z</time>
      </trkpt>
      <trkpt lat="50.50663" lon="2.86548">
        <ele>16.735000610352</ele>
        <time>2011-03-16T14:26:52Z</time>
      </trkpt>
      <trkpt lat="50.50642" lon="2.86575">
        <ele>14.163000106812</ele>
        <time>2011-03-16T14:26:56Z</time>
      </trkpt>
      <trkpt lat="50.50629" lon="2.86613">
        <ele>12.822999954224</ele>
        <time>2011-03-16T14:27:00Z</time>
      </trkpt>
      <trkpt lat="50.50631" lon="2.86623">
        <ele>12.972999572754</ele>
        <time>2011-03-16T14:27:01Z</time>
      </trkpt>
      <trkpt lat="50.5064" lon="2.86656">
        <ele>13.230999946594</ele>
        <time>2011-03-16T14:27:05Z</time>
      </trkpt>
      <trkpt lat="50.50644" lon="2.86681">
        <ele>13.102000236511</ele>
        <time>2011-03-16T14:27:08Z</time>
      </trkpt>
      <trkpt lat="50.50639" lon="2.86732">
        <ele>13.684000015259</ele>
        <time>2011-03-16T14:27:14Z</time>
      </trkpt>
      <trkpt lat="50.50626" lon="2.8676">
        <ele>13.434000015259</ele>
        <time>2011-03-16T14:27:18Z</time>
      </trkpt>
      <trkpt lat="50.506" lon="2.86794">
        <ele>12.60000038147</ele>
        <time>2011-03-16T14:27:24Z</time>
      </trkpt>
      <trkpt lat="50.50584" lon="2.86798">
        <ele>12.475999832153</ele>
        <time>2011-03-16T14:27:27Z</time>
      </trkpt>
      <trkpt lat="50.50564" lon="2.86785">
        <ele>12.361000061035</ele>
        <time>2011-03-16T14:27:31Z</time>
      </trkpt>
      <trkpt lat="50.50557" lon="2.86761">
        <ele>12.555000305176</ele>
        <time>2011-03-16T14:27:34Z</time>
      </trkpt>
      <trkpt lat="50.50548" lon="2.8671">
        <ele>13.11699962616</ele>
        <time>2011-03-16T14:27:40Z</time>
      </trkpt>
      <trkpt lat="50.50544" lon="2.86676">
        <ele>13.086000442505</ele>
        <time>2011-03-16T14:27:44Z</time>
      </trkpt>
      <trkpt lat="50.50541" lon="2.86651">
        <ele>12.845999717712</ele>
        <time>2011-03-16T14:27:47Z</time>
      </trkpt>
      <trkpt lat="50.50535" lon="2.86627">
        <ele>12.479000091553</ele>
        <time>2011-03-16T14:27:51Z</time>
      </trkpt>
      <trkpt lat="50.50531" lon="2.8663">
        <ele>12.503000259399</ele>
        <time>2011-03-16T14:27:52Z</time>
      </trkpt>
      <trkpt lat="50.50499" lon="2.86649">
        <ele>12.355999946594</ele>
        <time>2011-03-16T14:27:59Z</time>
      </trkpt>
      <trkpt lat="50.50471" lon="2.86662">
        <ele>13.296999931335</ele>
        <time>2011-03-16T14:28:05Z</time>
      </trkpt>
      <trkpt lat="50.50456" lon="2.86655">
        <ele>13.651000022888</ele>
        <time>2011-03-16T14:28:09Z</time>
      </trkpt>
      <trkpt lat="50.50447" lon="2.86657">
        <ele>13.470000267029</ele>
        <time>2011-03-16T14:28:11Z</time>
      </trkpt>
      <trkpt lat="50.50395" lon="2.86686">
        <ele>13.984999656677</ele>
        <time>2011-03-16T14:28:21Z</time>
      </trkpt>
      <trkpt lat="50.50352" lon="2.8671">
        <ele>14.114000320435</ele>
        <time>2011-03-16T14:28:29Z</time>
      </trkpt>
      <trkpt lat="50.50329" lon="2.86722">
        <ele>13.982999801636</ele>
        <time>2011-03-16T14:28:33Z</time>
      </trkpt>
      <trkpt lat="50.50318" lon="2.86746">
        <ele>13.697999954224</ele>
        <time>2011-03-16T14:28:37Z</time>
      </trkpt>
      <trkpt lat="50.50322" lon="2.86767">
        <ele>13.555999755859</ele>
        <time>2011-03-16T14:28:40Z</time>
      </trkpt>
      <trkpt lat="50.50338" lon="2.86842">
        <ele>15.072999954224</ele>
        <time>2011-03-16T14:28:50Z</time>
      </trkpt>
      <trkpt lat="50.50339" lon="2.86851">
        <ele>14.949999809265</ele>
        <time>2011-03-16T14:28:51Z</time>
      </trkpt>
      <trkpt lat="50.50333" lon="2.86876">
        <ele>14.661999702454</ele>
        <time>2011-03-16T14:28:55Z</time>
      </trkpt>
      <trkpt lat="50.5033" lon="2.86879">
        <ele>14.770999908447</ele>
        <time>2011-03-16T14:28:56Z</time>
      </trkpt>
      <trkpt lat="50.50319" lon="2.86886">
        <ele>14.722999572754</ele>
        <time>2011-03-16T14:29:01Z</time>
      </trkpt>
      <trkpt lat="50.50319" lon="2.86887">
        <ele>14.760999679565</ele>
        <time>2011-03-16T14:29:02Z</time>
      </trkpt>
    </trkseg>
  </trk>
</gpx>